createdAt,value
2023-04-24T00:01:03.215Z,15.12
2023-04-24T00:03:29.986Z,15.16
2023-04-24T00:05:56.829Z,15.05
2023-04-24T00:08:23.394Z,15.25
2023-04-24T00:10:50.266Z,15.38
2023-04-24T00:13:17.046Z,15.40
2023-04-24T00:15:43.657Z,15.00
2023-04-24T00:18:10.461Z,14.92
2023-04-24T00:20:37.124Z,14.75
2023-04-24T00:23:03.680Z,15.02
2023-04-24T00:25:30.277Z,14.98
2023-04-24T00:27:56.876Z,14.98
2023-04-24T00:30:23.477Z,14.89
2023-04-24T00:32:50.066Z,14.87
2023-04-24T00:35:16.649Z,15.20
2023-04-24T00:37:43.239Z,14.96
2023-04-24T00:40:09.803Z,15.10
2023-04-24T00:42:36.388Z,14.98
2023-04-24T00:45:03.026Z,15.20
2023-04-24T00:47:29.674Z,15.29
2023-04-24T00:49:56.300Z,15.32
2023-04-24T00:52:22.926Z,15.07
2023-04-24T00:54:49.491Z,15.12
2023-04-24T00:57:16.059Z,15.21
2023-04-24T00:59:42.822Z,15.26
2023-04-24T01:02:09.605Z,15.19
2023-04-24T01:04:36.334Z,14.90
2023-04-24T01:07:02.995Z,14.74
2023-04-24T01:09:29.588Z,14.95
2023-04-24T01:11:56.221Z,14.96
2023-04-24T01:14:22.820Z,15.02
2023-04-24T01:16:49.512Z,15.01
2023-04-24T01:19:16.078Z,15.01
2023-04-24T01:21:42.686Z,14.97
2023-04-24T01:24:09.270Z,14.94
2023-04-24T01:26:35.829Z,15.05
2023-04-24T01:29:02.447Z,15.12
2023-04-24T01:31:29.123Z,15.07
2023-04-24T01:33:55.750Z,15.04
2023-04-24T01:36:22.341Z,14.83
2023-04-24T01:38:49.971Z,14.78
2023-04-24T01:41:16.549Z,14.79
2023-04-24T01:43:43.161Z,14.77
2023-04-24T01:46:09.753Z,14.70
2023-04-24T01:48:36.380Z,14.86
2023-04-24T01:51:02.972Z,14.92
2023-04-24T01:53:29.553Z,14.70
2023-04-24T01:55:56.151Z,14.73
2023-04-24T01:58:25.072Z,14.82
2023-04-24T02:00:51.666Z,14.83
2023-04-24T02:03:18.468Z,14.75
2023-04-24T02:05:45.170Z,14.57
2023-04-24T02:08:11.754Z,14.82
2023-04-24T02:10:40.395Z,14.81
2023-04-24T02:13:06.963Z,14.66
2023-04-24T02:15:33.583Z,14.57
2023-04-24T02:18:00.299Z,14.62
2023-04-24T02:20:27.011Z,14.57
2023-04-24T02:22:53.619Z,14.65
2023-04-24T02:25:20.304Z,14.50
2023-04-24T02:27:46.994Z,14.62
2023-04-24T02:30:13.579Z,14.65
2023-04-24T02:32:40.297Z,14.35
2023-04-24T02:35:07.111Z,14.33
2023-04-24T02:37:33.771Z,14.19
2023-04-24T02:40:00.406Z,14.38
2023-04-24T02:42:27.102Z,14.53
2023-04-24T02:44:54.054Z,14.59
2023-04-24T02:47:20.736Z,14.52
2023-04-24T02:49:47.379Z,14.43
2023-04-24T02:52:14.038Z,14.54
2023-04-24T02:54:40.933Z,14.48
2023-04-24T02:57:07.523Z,14.15
2023-04-24T02:59:34.112Z,14.15
2023-04-24T03:02:00.778Z,14.30
2023-04-24T03:04:27.427Z,14.52
2023-04-24T03:06:54.087Z,14.52
2023-04-24T03:09:20.695Z,14.64
2023-04-24T03:11:47.296Z,14.60
2023-04-24T03:14:13.957Z,14.54
2023-04-24T03:16:40.997Z,14.41
2023-04-24T03:19:07.733Z,14.36
2023-04-24T03:21:34.294Z,14.56
2023-04-24T03:24:00.908Z,14.50
2023-04-24T03:26:27.487Z,14.52
2023-04-24T03:28:54.113Z,14.55
2023-04-24T03:31:20.718Z,14.65
2023-04-24T03:33:47.381Z,14.74
2023-04-24T03:36:13.968Z,14.60
2023-04-24T03:38:40.579Z,14.58
2023-04-24T03:41:07.151Z,14.38
2023-04-24T03:43:33.732Z,14.22
2023-04-24T03:46:00.318Z,14.38
2023-04-24T03:48:34.258Z,14.22
2023-04-24T03:51:00.836Z,14.42
2023-04-24T03:53:27.491Z,14.20
2023-04-24T03:55:54.085Z,14.17
2023-04-24T03:58:20.637Z,14.05
2023-04-24T04:00:47.414Z,14.25
2023-04-24T04:03:14.370Z,14.36
2023-04-24T04:05:41.155Z,14.53
2023-04-24T04:08:07.798Z,14.47
2023-04-24T04:10:34.384Z,14.51
2023-04-24T04:13:00.955Z,14.74
2023-04-24T04:15:27.531Z,14.37
2023-04-24T04:17:54.227Z,14.34
2023-04-24T04:20:21.018Z,14.13
2023-04-24T04:22:47.666Z,14.20
2023-04-24T04:25:14.332Z,13.98
2023-04-24T04:27:40.908Z,14.32
2023-04-24T04:30:07.512Z,14.57
2023-04-24T04:32:34.215Z,14.69
2023-04-24T04:35:00.879Z,14.73
2023-04-24T04:37:27.663Z,14.73
2023-04-24T04:39:54.222Z,14.70
2023-04-24T04:42:20.833Z,14.82
2023-04-24T04:44:47.489Z,14.78
2023-04-24T04:47:14.067Z,14.99
2023-04-24T04:49:40.702Z,15.08
2023-04-24T04:52:07.319Z,15.10
2023-04-24T04:54:34.162Z,14.81
2023-04-24T04:57:01.690Z,14.79
2023-04-24T04:59:29.709Z,14.92
2023-04-24T05:01:56.289Z,14.88
2023-04-24T05:04:23.048Z,15.06
2023-04-24T05:06:49.940Z,15.21
2023-04-24T05:09:16.561Z,15.10
2023-04-24T05:11:43.241Z,15.31
2023-04-24T05:14:09.797Z,15.26
2023-04-24T05:16:36.543Z,15.35
2023-04-24T05:19:03.150Z,15.38
2023-04-24T05:21:29.726Z,15.65
2023-04-24T05:23:56.319Z,15.52
2023-04-24T05:26:22.944Z,15.28
2023-04-24T05:28:49.560Z,15.02
2023-04-24T05:31:16.177Z,15.05
2023-04-24T05:33:42.798Z,14.86
2023-04-24T05:36:09.372Z,15.12
2023-04-24T05:38:35.957Z,15.33
2023-04-24T05:41:02.558Z,15.50
2023-04-24T05:43:29.128Z,15.65
2023-04-24T05:45:55.777Z,15.76
2023-04-24T05:48:22.603Z,15.84
2023-04-24T05:50:49.177Z,15.83
2023-04-24T05:53:15.798Z,16.11
2023-04-24T05:55:42.389Z,16.01
2023-04-24T05:58:08.970Z,16.06
2023-04-24T06:00:35.613Z,16.14
2023-04-24T06:03:02.410Z,16.29
2023-04-24T06:05:29.342Z,16.58
2023-04-24T06:07:55.946Z,16.58
2023-04-24T06:10:22.536Z,16.75
2023-04-24T06:12:49.168Z,16.84
2023-04-24T06:15:15.745Z,17.01
2023-04-24T06:17:42.392Z,16.94
2023-04-24T06:20:09.154Z,17.18
2023-04-24T06:22:35.746Z,17.16
2023-04-24T06:25:03.580Z,17.02
2023-04-24T06:27:30.157Z,17.01
2023-04-24T06:29:56.783Z,16.98
2023-04-24T06:32:23.612Z,17.14
2023-04-24T06:34:50.386Z,17.39
2023-04-24T06:37:17.983Z,17.40
2023-04-24T06:39:45.020Z,17.52
2023-04-24T06:42:12.664Z,17.63
2023-04-24T06:44:39.272Z,18.10
2023-04-24T06:47:05.862Z,18.14
2023-04-24T06:49:32.529Z,18.36
2023-04-24T06:51:59.181Z,17.83
2023-04-24T06:54:25.776Z,18.10
2023-04-24T06:56:52.384Z,18.40
2023-04-24T06:59:19.007Z,18.30
2023-04-24T07:01:45.812Z,17.86
2023-04-24T07:04:12.596Z,18.04
2023-04-24T07:06:39.313Z,18.17
2023-04-24T07:09:05.967Z,18.21
2023-04-24T07:11:32.783Z,18.14
2023-04-24T07:13:59.408Z,18.01
2023-04-24T07:16:26.147Z,17.99
2023-04-24T07:18:52.736Z,17.63
2023-04-24T07:21:19.342Z,17.80
2023-04-24T07:23:45.933Z,17.96
2023-04-24T07:26:12.710Z,17.94
2023-04-24T07:28:39.411Z,17.98
2023-04-24T07:31:06.294Z,18.01
2023-04-24T07:33:32.902Z,18.10
2023-04-24T07:35:59.542Z,18.30
2023-04-24T07:38:26.108Z,18.27
2023-04-24T07:40:52.729Z,17.62
2023-04-24T07:43:19.305Z,17.56
2023-04-24T07:45:45.924Z,17.53
2023-04-24T07:48:12.585Z,17.38
2023-04-24T07:50:39.272Z,17.22
2023-04-24T07:53:05.873Z,17.19
2023-04-24T07:55:32.508Z,17.00
2023-04-24T07:57:59.098Z,17.24
2023-04-24T08:00:25.740Z,17.39
2023-04-24T08:02:52.576Z,17.55
2023-04-24T08:05:19.717Z,17.50
2023-04-24T08:07:46.439Z,17.71
2023-04-24T08:10:13.060Z,17.85
2023-04-24T08:12:39.886Z,17.98
2023-04-24T08:15:06.636Z,18.13
2023-04-24T08:17:33.259Z,18.22
2023-04-24T08:19:59.852Z,18.15
2023-04-24T08:22:26.495Z,17.94
2023-04-24T08:24:53.091Z,18.08
2023-04-24T08:27:19.658Z,18.13
2023-04-24T08:29:46.257Z,18.13
2023-04-24T08:32:12.852Z,18.20
2023-04-24T08:34:39.558Z,18.22
2023-04-24T08:37:06.141Z,18.26
2023-04-24T08:39:32.766Z,18.26
2023-04-24T08:41:59.339Z,18.05
2023-04-24T08:44:25.958Z,18.23
2023-04-24T08:46:52.779Z,18.30
2023-04-24T08:49:19.416Z,18.10
2023-04-24T08:51:45.990Z,17.96
2023-04-24T08:54:12.609Z,17.97
2023-04-24T08:56:39.205Z,18.02
2023-04-24T08:59:05.868Z,18.02
2023-04-24T09:01:32.500Z,18.03
2023-04-24T09:03:59.280Z,18.02
2023-04-24T09:06:25.999Z,17.78
2023-04-24T09:08:52.643Z,17.76
2023-04-24T09:11:19.218Z,17.70
2023-04-24T09:13:45.887Z,17.53
2023-04-24T09:16:12.483Z,17.63
2023-04-24T09:18:39.100Z,17.62
2023-04-24T09:21:05.892Z,17.55
2023-04-24T09:23:32.522Z,17.59
2023-04-24T09:25:59.348Z,17.73
2023-04-24T09:28:26.012Z,17.88
2023-04-24T09:30:52.620Z,18.01
2023-04-24T09:33:19.201Z,18.01
2023-04-24T09:35:45.902Z,18.16
2023-04-24T09:38:12.496Z,18.22
2023-04-24T09:40:41.093Z,18.07
2023-04-24T09:43:08.215Z,18.15
2023-04-24T09:45:34.847Z,18.47
2023-04-24T09:48:01.476Z,18.43
2023-04-24T09:50:28.217Z,18.66
2023-04-24T09:52:54.817Z,18.98
2023-04-24T09:55:21.408Z,19.32
2023-04-24T09:57:48.104Z,19.49
2023-04-24T10:00:14.849Z,18.84
2023-04-24T10:02:41.490Z,19.19
2023-04-24T10:05:08.213Z,19.70
2023-04-24T10:07:34.863Z,20.05
2023-04-24T10:10:02.473Z,20.02
2023-04-24T10:12:29.108Z,19.43
2023-04-24T10:14:55.716Z,19.78
2023-04-24T10:17:22.363Z,20.15
2023-04-24T10:19:48.950Z,20.51
2023-04-24T10:22:15.573Z,20.40
2023-04-24T10:24:44.865Z,20.39
2023-04-24T10:27:11.587Z,20.25
2023-04-24T10:29:38.159Z,20.47
2023-04-24T10:32:04.768Z,20.47
2023-04-24T10:34:31.370Z,20.27
2023-04-24T10:36:58.353Z,20.28
2023-04-24T10:39:27.206Z,20.40
2023-04-24T10:41:54.601Z,20.32
2023-04-24T10:44:21.160Z,20.28
2023-04-24T10:46:47.807Z,20.44
2023-04-24T10:49:14.494Z,20.65
2023-04-24T10:51:41.080Z,20.79
2023-04-24T10:54:07.665Z,20.77
2023-04-24T10:56:34.264Z,20.46
2023-04-24T10:59:00.887Z,20.61
2023-04-24T11:01:27.650Z,20.39
2023-04-24T11:03:54.490Z,20.46
2023-04-24T11:06:21.279Z,20.62
2023-04-24T11:08:47.903Z,20.69
2023-04-24T11:11:14.571Z,20.66
2023-04-24T11:13:41.164Z,20.91
2023-04-24T11:16:07.769Z,20.90
2023-04-24T11:18:34.617Z,20.93
2023-04-24T11:21:01.211Z,21.03
2023-04-24T11:23:28.061Z,21.24
2023-04-24T11:25:54.634Z,21.21
2023-04-24T11:28:21.224Z,21.32
2023-04-24T11:30:47.786Z,21.17
2023-04-24T11:33:14.502Z,21.21
2023-04-24T11:35:41.123Z,21.34
2023-04-24T11:38:23.413Z,21.43
2023-04-24T11:40:50.986Z,21.31
2023-04-24T11:43:17.579Z,20.93
2023-04-24T11:45:44.242Z,21.11
2023-04-24T11:48:10.973Z,21.18
2023-04-24T11:50:37.570Z,21.39
2023-04-24T11:53:04.162Z,21.62
2023-04-24T11:55:30.808Z,21.36
2023-04-24T11:57:57.404Z,21.25
2023-04-24T12:00:24.119Z,21.09
2023-04-24T12:02:50.925Z,21.38
2023-04-24T12:05:17.971Z,21.58
2023-04-24T12:07:44.771Z,21.38
2023-04-24T12:10:11.473Z,21.14
2023-04-24T12:12:38.087Z,20.63
2023-04-24T12:15:04.934Z,20.91
2023-04-24T12:17:31.546Z,21.20
2023-04-24T12:19:58.144Z,21.54
2023-04-24T12:22:24.849Z,21.90
2023-04-24T12:24:51.760Z,22.23
2023-04-24T12:27:18.378Z,22.15
2023-04-24T12:29:44.944Z,22.16
2023-04-24T12:32:11.638Z,22.03
2023-04-24T12:34:41.710Z,21.83
2023-04-24T12:37:08.277Z,22.13
2023-04-24T12:39:35.459Z,21.90
2023-04-24T12:42:02.245Z,22.05
2023-04-24T12:44:28.929Z,22.18
2023-04-24T12:46:55.560Z,22.26
2023-04-24T12:49:22.126Z,22.47
2023-04-24T12:51:49.003Z,21.92
2023-04-24T12:54:15.862Z,21.94
2023-04-24T12:56:42.773Z,21.77
2023-04-24T12:59:09.713Z,21.83
2023-04-24T13:01:37.209Z,21.87
2023-04-24T13:04:04.338Z,21.48
2023-04-24T13:06:31.265Z,21.56
2023-04-24T13:08:58.418Z,21.76
2023-04-24T13:11:25.209Z,21.66
2023-04-24T13:13:53.682Z,21.41
2023-04-24T13:16:21.627Z,21.25
2023-04-24T13:18:48.380Z,21.27
2023-04-24T13:21:15.168Z,21.27
2023-04-24T13:23:42.011Z,21.55
2023-04-24T13:26:08.831Z,21.72
2023-04-24T13:28:35.820Z,21.32
2023-04-24T13:31:02.406Z,21.24
2023-04-24T13:33:29.032Z,20.95
2023-04-24T13:35:55.615Z,20.90
2023-04-24T13:38:22.224Z,21.12
2023-04-24T13:40:48.834Z,21.25
2023-04-24T13:43:15.450Z,21.22
2023-04-24T13:45:42.106Z,20.67
2023-04-24T13:48:08.767Z,20.01
2023-04-24T13:50:35.418Z,19.89
2023-04-24T13:53:02.805Z,20.01
2023-04-24T13:55:29.630Z,20.32
2023-04-24T13:57:56.386Z,19.95
2023-04-24T14:00:23.160Z,19.77
2023-04-24T14:02:49.832Z,19.71
2023-04-24T14:05:16.605Z,19.52
2023-04-24T14:07:43.181Z,19.38
2023-04-24T14:10:09.790Z,19.22
2023-04-24T14:12:36.390Z,19.60
2023-04-24T14:15:03.087Z,19.21
2023-04-24T14:17:29.769Z,19.29
2023-04-24T14:19:56.434Z,19.19
2023-04-24T14:22:23.000Z,19.38
2023-04-24T14:24:49.587Z,19.29
2023-04-24T14:27:16.177Z,19.02
2023-04-24T14:29:42.778Z,19.08
2023-04-24T14:32:09.447Z,19.47
2023-04-24T14:34:36.133Z,19.37
2023-04-24T14:37:02.774Z,19.32
2023-04-24T14:39:29.340Z,19.08
2023-04-24T14:41:56.012Z,18.99
2023-04-24T14:44:22.624Z,18.95
2023-04-24T14:46:49.307Z,19.43
2023-04-24T14:49:15.966Z,20.07
2023-04-24T14:51:42.540Z,19.62
2023-04-24T14:54:09.135Z,19.39
2023-04-24T14:56:36.726Z,19.49
2023-04-24T14:59:03.390Z,19.38
2023-04-24T15:01:30.036Z,19.49
2023-04-24T15:03:56.734Z,19.71
2023-04-24T15:06:23.423Z,20.05
2023-04-24T15:08:50.747Z,20.15
2023-04-24T15:11:17.495Z,20.44
2023-04-24T15:13:44.328Z,20.45
2023-04-24T15:16:11.149Z,20.28
2023-04-24T15:18:37.763Z,19.64
2023-04-24T15:21:04.347Z,19.82
2023-04-24T15:23:31.177Z,19.54
2023-04-24T15:25:57.813Z,19.62
2023-04-24T15:28:24.502Z,19.89
2023-04-24T15:30:51.074Z,19.99
2023-04-24T15:33:17.731Z,19.74
2023-04-24T15:35:44.343Z,19.72
2023-04-24T15:38:13.347Z,19.87
2023-04-24T15:40:39.950Z,19.80
2023-04-24T15:43:06.546Z,20.02
2023-04-24T15:45:33.168Z,19.76
2023-04-24T15:47:59.795Z,19.31
2023-04-24T15:50:28.584Z,19.38
2023-04-24T15:52:55.167Z,19.04
2023-04-24T15:55:21.791Z,19.08
2023-04-24T15:57:48.401Z,18.89
2023-04-24T16:00:15.001Z,18.85
2023-04-24T16:02:41.759Z,18.92
2023-04-24T16:05:08.470Z,18.92
2023-04-24T16:07:35.074Z,18.84
2023-04-24T16:10:01.812Z,18.97
2023-04-24T16:12:28.868Z,19.08
2023-04-24T16:14:55.549Z,19.09
2023-04-24T16:17:22.214Z,19.01
2023-04-24T16:19:48.847Z,18.21
2023-04-24T16:22:15.459Z,18.21
2023-04-24T16:24:42.056Z,18.41
2023-04-24T16:27:08.857Z,18.29
2023-04-24T16:29:35.620Z,18.49
2023-04-24T16:32:02.216Z,18.73
2023-04-24T16:34:28.788Z,18.84
2023-04-24T16:36:55.423Z,18.74
2023-04-24T16:39:22.006Z,18.58
2023-04-24T16:41:48.624Z,18.52
2023-04-24T16:44:15.238Z,18.48
2023-04-24T16:46:41.894Z,18.53
2023-04-24T16:49:08.684Z,18.27
2023-04-24T16:51:35.288Z,18.35
2023-04-24T16:54:01.865Z,18.27
2023-04-24T16:56:28.427Z,18.24
2023-04-24T16:58:55.044Z,18.28
2023-04-24T17:01:21.725Z,18.33
2023-04-24T17:03:51.085Z,18.34
2023-04-24T17:06:17.779Z,18.27
2023-04-24T17:08:44.353Z,18.01
2023-04-24T17:11:10.941Z,17.87
2023-04-24T17:13:37.575Z,17.93
2023-04-24T17:16:04.207Z,17.76
2023-04-24T17:18:30.788Z,17.85
2023-04-24T17:20:57.393Z,17.79
2023-04-24T17:23:23.976Z,17.68
2023-04-24T17:25:50.769Z,17.50
2023-04-24T17:28:17.346Z,17.68
2023-04-24T17:30:43.970Z,17.80
2023-04-24T17:33:10.662Z,17.52
2023-04-24T17:35:37.287Z,17.54
2023-04-24T17:38:03.867Z,17.74
2023-04-24T17:40:30.472Z,17.54
2023-04-24T17:42:57.167Z,17.81
2023-04-24T17:45:23.742Z,17.82
2023-04-24T17:47:51.668Z,17.54
2023-04-24T17:50:20.768Z,17.50
2023-04-24T17:52:47.347Z,17.40
2023-04-24T17:55:13.952Z,17.54
2023-04-24T17:57:42.874Z,17.54
2023-04-24T18:00:09.515Z,17.47
2023-04-24T18:02:36.301Z,17.61
2023-04-24T18:05:03.021Z,17.66
2023-04-24T18:07:29.594Z,17.39
2023-04-24T18:09:56.486Z,17.45
2023-04-24T18:12:24.216Z,17.59
2023-04-24T18:14:54.777Z,17.70
2023-04-24T18:17:26.494Z,17.38
2023-04-24T18:19:53.106Z,17.11
2023-04-24T18:22:19.684Z,17.22
2023-04-24T18:24:46.242Z,17.07
2023-04-24T18:27:12.901Z,16.67
2023-04-24T18:29:39.502Z,16.16
2023-04-24T18:32:06.293Z,16.09
2023-04-24T18:34:32.898Z,15.76
2023-04-24T18:36:59.464Z,16.20
2023-04-24T18:39:26.049Z,16.61
2023-04-24T18:41:52.665Z,16.81
2023-04-24T18:44:19.260Z,16.78
2023-04-24T18:46:45.883Z,16.77
2023-04-24T18:49:12.639Z,16.82
2023-04-24T18:51:52.455Z,16.78
2023-04-24T18:54:22.250Z,16.80
2023-04-24T18:56:48.856Z,16.93
2023-04-24T18:59:15.434Z,17.03
2023-04-24T19:01:42.006Z,16.65
2023-04-24T19:04:08.671Z,16.19
2023-04-24T19:06:35.283Z,16.28
2023-04-24T19:09:01.991Z,16.67
2023-04-24T19:11:28.580Z,16.87
2023-04-24T19:13:55.164Z,16.92
2023-04-24T19:16:21.775Z,16.94
2023-04-24T19:18:48.662Z,17.02
2023-04-24T19:21:15.543Z,17.02
2023-04-24T19:23:42.120Z,16.97
2023-04-24T19:26:08.762Z,16.86
2023-04-24T19:28:36.339Z,16.84
2023-04-24T19:31:04.447Z,16.32
2023-04-24T19:33:31.027Z,16.43
2023-04-24T19:35:57.656Z,16.46
2023-04-24T19:38:24.246Z,16.70
2023-04-24T19:40:50.875Z,16.75
2023-04-24T19:43:17.562Z,16.85
2023-04-24T19:45:44.179Z,16.86
2023-04-24T19:48:10.799Z,16.12
2023-04-24T19:50:37.523Z,16.30
2023-04-24T19:53:04.093Z,16.57
2023-04-24T19:55:30.845Z,16.67
2023-04-24T19:57:57.468Z,16.33
2023-04-24T20:00:24.184Z,15.54
2023-04-24T20:02:50.848Z,15.86
2023-04-24T20:05:17.739Z,16.23
2023-04-24T20:07:44.437Z,16.28
2023-04-24T20:10:11.048Z,16.01
2023-04-24T20:12:37.668Z,16.12
2023-04-24T20:15:04.268Z,16.38
2023-04-24T20:17:30.846Z,15.88
2023-04-24T20:19:57.736Z,15.65
2023-04-24T20:22:24.357Z,16.07
2023-04-24T20:24:50.976Z,15.38
2023-04-24T20:27:17.557Z,15.73
2023-04-24T20:29:44.140Z,16.16
2023-04-24T20:32:10.861Z,16.08
2023-04-24T20:34:37.460Z,16.09
2023-04-24T20:37:04.101Z,15.84
2023-04-24T20:39:30.766Z,15.78
2023-04-24T20:41:57.325Z,15.82
2023-04-24T20:44:23.944Z,16.03
2023-04-24T20:46:50.533Z,16.24
2023-04-24T20:49:17.133Z,15.92
2023-04-24T20:51:43.727Z,16.17
2023-04-24T20:54:10.321Z,15.93
2023-04-24T20:56:36.947Z,16.00
2023-04-24T20:59:03.645Z,15.91
2023-04-24T21:01:30.373Z,16.04
2023-04-24T21:03:57.128Z,16.13
2023-04-24T21:06:23.745Z,16.17
2023-04-24T21:08:50.353Z,15.92
2023-04-24T21:11:16.962Z,16.14
2023-04-24T21:13:43.541Z,16.11
2023-04-24T21:16:10.166Z,16.22
2023-04-24T21:18:36.755Z,16.25
2023-04-24T21:21:03.353Z,16.34
2023-04-24T21:23:29.941Z,16.30
2023-04-24T21:25:56.582Z,16.40
2023-04-24T21:28:23.158Z,16.25
2023-04-24T21:30:49.711Z,16.24
2023-04-24T21:33:16.332Z,16.35
2023-04-24T21:35:42.923Z,16.14
2023-04-24T21:38:09.624Z,16.25
2023-04-24T21:40:36.192Z,16.30
2023-04-24T21:43:02.866Z,16.19
2023-04-24T21:45:29.469Z,16.19
2023-04-24T21:47:56.093Z,15.77
2023-04-24T21:50:22.736Z,15.72
2023-04-24T21:52:49.357Z,15.71
2023-04-24T21:55:16.094Z,15.52
2023-04-24T21:57:42.800Z,15.60
2023-04-24T22:00:09.764Z,15.81
2023-04-24T22:02:36.486Z,16.05
2023-04-24T22:05:03.538Z,16.17
2023-04-24T22:07:30.215Z,16.17
2023-04-24T22:09:56.808Z,15.94
2023-04-24T22:12:23.396Z,16.07
2023-04-24T22:14:49.984Z,16.09
2023-04-24T22:17:16.584Z,16.02
2023-04-24T22:19:43.152Z,15.94
2023-04-24T22:22:10.051Z,16.12
2023-04-24T22:24:36.754Z,16.10
2023-04-24T22:27:03.371Z,15.95
2023-04-24T22:29:29.947Z,15.91
2023-04-24T22:31:56.685Z,15.94
2023-04-24T22:34:23.612Z,15.61
2023-04-24T22:39:34.309Z,15.68
2023-04-24T22:42:00.867Z,15.83
2023-04-24T22:44:27.443Z,15.76
2023-04-24T22:46:54.036Z,15.91
2023-04-24T22:49:20.839Z,15.93
2023-04-24T22:51:47.475Z,15.82
2023-04-24T22:54:14.084Z,15.59
2023-04-24T22:56:40.645Z,15.53
2023-04-24T22:59:07.259Z,15.91
2023-04-24T23:01:33.902Z,15.83
2023-04-24T23:04:00.574Z,15.98
2023-04-24T23:06:27.193Z,15.96
2023-04-24T23:08:53.760Z,15.57
2023-04-24T23:11:20.372Z,15.50
2023-04-24T23:13:47.209Z,15.70
2023-04-24T23:16:14.099Z,15.85
2023-04-24T23:18:42.846Z,15.67
2023-04-24T23:21:09.453Z,15.71
2023-04-24T23:23:36.062Z,15.80
2023-04-24T23:26:02.631Z,15.96
2023-04-24T23:28:30.308Z,15.85
2023-04-24T23:30:56.905Z,15.74
2023-04-24T23:33:23.548Z,15.47
2023-04-24T23:35:50.229Z,15.62
2023-04-24T23:38:16.860Z,15.35
2023-04-24T23:40:43.451Z,15.34
2023-04-24T23:43:10.201Z,15.37
2023-04-24T23:45:37.017Z,15.31
2023-04-24T23:48:03.807Z,15.43
2023-04-24T23:50:30.397Z,15.59
2023-04-24T23:52:57.037Z,15.59
2023-04-24T23:55:23.601Z,15.59
2023-04-24T23:57:50.195Z,15.25
